createdAt,value
2022-08-19T00:00:11.236Z,21.40
2022-08-19T00:02:39.143Z,21.30
2022-08-19T00:05:20.592Z,21.40
2022-08-19T00:07:49.528Z,21.40
2022-08-19T00:10:19.431Z,21.30
2022-08-19T00:12:47.388Z,21.40
2022-08-19T00:15:19.864Z,21.30
2022-08-19T00:17:48.563Z,21.30
2022-08-19T00:20:20.892Z,21.20
2022-08-19T00:22:49.458Z,21.30
2022-08-19T00:25:17.807Z,21.20
2022-08-19T00:27:45.645Z,21.20
2022-08-19T00:30:13.796Z,21.20
2022-08-19T00:32:41.665Z,21.20
2022-08-19T00:35:10.750Z,21.20
2022-08-19T00:37:44.176Z,21.20
2022-08-19T00:40:13.683Z,21.20
2022-08-19T00:42:42.296Z,21.20
2022-08-19T00:45:22.008Z,21.20
2022-08-19T00:47:50.070Z,21.20
2022-08-19T00:50:21.119Z,21.10
2022-08-19T00:52:52.354Z,21.20
2022-08-19T00:55:25.880Z,21.20
2022-08-19T00:58:02.527Z,21.20
2022-08-19T01:00:32.608Z,21.10
2022-08-19T01:03:00.606Z,21.10
2022-08-19T01:05:30.249Z,21.10
2022-08-19T01:08:01.815Z,21.10
2022-08-19T01:10:36.666Z,21.10
2022-08-19T01:13:05.946Z,21.20
2022-08-19T01:15:43.139Z,21.20
2022-08-19T01:18:14.768Z,21.20
2022-08-19T01:20:44.145Z,21.20
2022-08-19T01:23:12.980Z,21.20
2022-08-19T01:25:50.931Z,21.10
2022-08-19T01:28:40.073Z,21.10
2022-08-19T01:31:27.158Z,21.10
2022-08-19T01:33:58.432Z,21.10
2022-08-19T01:36:35.065Z,21.10
2022-08-19T01:39:08.611Z,21.10
2022-08-19T01:41:36.967Z,21.00
2022-08-19T01:44:17.774Z,21.00
2022-08-19T01:46:49.515Z,21.00
2022-08-19T01:49:20.730Z,21.10
2022-08-19T01:51:50.488Z,21.00
2022-08-19T01:54:23.166Z,21.00
2022-08-19T01:57:07.744Z,20.90
2022-08-19T01:59:37.512Z,20.90
2022-08-19T02:02:09.743Z,20.90
2022-08-19T02:04:39.086Z,21.00
2022-08-19T02:07:09.147Z,20.90
2022-08-19T02:09:37.248Z,20.90
2022-08-19T02:12:08.629Z,20.80
2022-08-19T02:14:37.680Z,20.80
2022-08-19T02:17:05.589Z,20.80
2022-08-19T02:19:33.812Z,20.70
2022-08-19T02:22:01.984Z,20.70
2022-08-19T02:24:29.812Z,20.70
2022-08-19T02:26:58.328Z,20.70
2022-08-19T02:29:26.154Z,20.70
2022-08-19T02:31:54.120Z,20.70
2022-08-19T02:34:22.022Z,20.60
2022-08-19T02:36:51.743Z,20.60
2022-08-19T02:39:20.417Z,20.60
2022-08-19T02:41:48.293Z,20.50
2022-08-19T02:44:29.689Z,20.60
2022-08-19T02:47:00.359Z,20.60
2022-08-19T02:49:28.209Z,20.60
2022-08-19T02:51:56.081Z,20.50
2022-08-19T02:54:23.850Z,20.50
2022-08-19T02:56:51.649Z,20.50
2022-08-19T02:59:20.301Z,20.40
2022-08-19T03:01:50.945Z,20.40
2022-08-19T03:04:20.297Z,20.40
2022-08-19T03:06:49.492Z,20.30
2022-08-19T03:09:20.614Z,20.30
2022-08-19T03:11:48.689Z,20.30
2022-08-19T03:14:20.471Z,20.40
2022-08-19T03:16:53.389Z,20.40
2022-08-19T03:19:22.471Z,20.40
2022-08-19T03:21:51.580Z,20.30
2022-08-19T03:24:21.168Z,20.30
2022-08-19T03:26:53.574Z,20.30
2022-08-19T03:29:30.294Z,20.30
2022-08-19T03:32:02.030Z,20.30
2022-08-19T03:34:35.625Z,20.30
2022-08-19T03:37:10.569Z,20.40
2022-08-19T03:39:40.340Z,20.40
2022-08-19T03:42:38.186Z,20.40
2022-08-19T03:44:56.709Z,20.30
2022-08-19T03:47:24.512Z,20.30
2022-08-19T03:49:52.437Z,20.20
2022-08-19T03:52:20.398Z,20.30
2022-08-19T03:54:48.216Z,20.20
2022-08-19T03:57:16.022Z,20.20
2022-08-19T03:59:44.544Z,20.20
2022-08-19T04:02:13.723Z,20.20
2022-08-19T04:04:44.391Z,20.20
2022-08-19T04:07:17.131Z,20.30
2022-08-19T04:09:45.100Z,20.20
2022-08-19T04:12:12.951Z,20.20
2022-08-19T04:14:40.844Z,20.10
2022-08-19T04:17:08.732Z,20.10
2022-08-19T04:19:37.628Z,20.10
2022-08-19T04:22:06.079Z,20.20
2022-08-19T04:24:36.286Z,20.10
2022-08-19T04:27:07.137Z,20.10
2022-08-19T04:29:35.149Z,20.10
2022-08-19T04:32:09.437Z,20.10
2022-08-19T04:35:02.423Z,20.10
2022-08-19T04:37:35.058Z,20.10
2022-08-19T04:40:26.107Z,20.10
2022-08-19T04:42:54.683Z,20.10
2022-08-19T04:45:23.260Z,20.10
2022-08-19T04:47:58.399Z,20.10
2022-08-19T04:50:46.039Z,20.00
2022-08-19T04:53:13.817Z,20.00
2022-08-19T04:55:43.554Z,20.00
2022-08-19T04:58:11.376Z,20.00
2022-08-19T05:00:40.996Z,20.00
2022-08-19T05:03:09.534Z,20.00
2022-08-19T05:05:44.668Z,20.00
2022-08-19T05:08:19.511Z,20.10
2022-08-19T05:10:59.638Z,20.10
2022-08-19T05:13:28.180Z,20.00
2022-08-19T05:15:58.652Z,20.00
2022-08-19T05:18:46.240Z,20.00
2022-08-19T05:21:37.369Z,20.00
2022-08-19T05:24:10.495Z,20.00
2022-08-19T05:26:40.533Z,20.00
2022-08-19T05:29:10.281Z,20.00
2022-08-19T05:31:42.283Z,20.10
2022-08-19T05:34:20.448Z,20.10
2022-08-19T05:36:49.623Z,20.10
2022-08-19T05:39:21.504Z,20.10
2022-08-19T05:41:58.170Z,20.10
2022-08-19T05:44:32.691Z,20.10
2022-08-19T05:47:03.997Z,20.10
2022-08-19T05:49:34.053Z,20.10
2022-08-19T05:52:12.815Z,20.10
2022-08-19T05:54:42.569Z,20.10
2022-08-19T05:57:11.735Z,20.10
2022-08-19T05:59:41.221Z,20.10
2022-08-19T06:02:10.205Z,20.10
2022-08-19T06:04:38.706Z,20.20
2022-08-19T06:07:12.298Z,20.10
2022-08-19T06:09:43.772Z,20.10
2022-08-19T06:12:32.856Z,20.10
2022-08-19T06:15:02.844Z,20.20
2022-08-19T06:17:31.929Z,20.10
2022-08-19T06:20:16.256Z,20.10
2022-08-19T06:22:49.750Z,20.20
2022-08-19T06:25:18.264Z,20.20
2022-08-19T06:28:11.866Z,20.10
2022-08-19T06:30:34.591Z,20.20
2022-08-19T06:33:02.408Z,20.10
2022-08-19T06:35:30.633Z,20.10
2022-08-19T06:37:58.554Z,20.10
2022-08-19T06:40:28.485Z,20.10
2022-08-19T06:42:57.383Z,20.10
2022-08-19T06:45:35.498Z,20.20
2022-08-19T06:48:08.434Z,20.30
2022-08-19T06:50:36.842Z,20.30
2022-08-19T06:53:08.312Z,20.20
2022-08-19T06:55:36.344Z,20.30
2022-08-19T06:58:06.110Z,20.30
2022-08-19T07:00:34.834Z,20.30
2022-08-19T07:03:07.647Z,20.20
2022-08-19T07:05:45.814Z,20.30
2022-08-19T07:08:15.005Z,20.40
2022-08-19T07:10:47.543Z,20.40
2022-08-19T07:13:15.582Z,20.40
2022-08-19T07:15:43.468Z,20.50
2022-08-19T07:18:11.626Z,20.50
2022-08-19T07:20:41.963Z,20.50
2022-08-19T07:23:16.653Z,20.60
2022-08-19T07:25:51.365Z,20.60
2022-08-19T07:28:24.704Z,20.60
2022-08-19T07:30:53.923Z,20.50
2022-08-19T07:33:23.281Z,20.50
2022-08-19T07:35:51.165Z,20.40
2022-08-19T07:38:19.079Z,20.40
2022-08-19T07:40:47.078Z,20.50
2022-08-19T07:43:17.828Z,20.50
2022-08-19T07:45:47.936Z,20.50
2022-08-19T07:48:15.963Z,20.70
2022-08-19T07:50:44.289Z,20.70
2022-08-19T07:53:13.361Z,20.70
2022-08-19T07:55:43.836Z,20.70
2022-08-19T07:58:18.474Z,20.70
2022-08-19T08:00:49.552Z,20.80
2022-08-19T08:03:42.116Z,20.80
2022-08-19T08:06:30.681Z,20.80
2022-08-19T08:12:35.113Z,20.70
2022-08-19T08:15:08.996Z,20.80
2022-08-19T08:17:49.198Z,20.80
2022-08-19T08:20:20.491Z,20.80
2022-08-19T08:23:07.355Z,20.80
2022-08-19T08:25:37.239Z,20.90
2022-08-19T08:28:06.285Z,20.90
2022-08-19T08:30:36.789Z,20.90
2022-08-19T08:33:05.369Z,20.90
2022-08-19T08:35:34.391Z,21.00
2022-08-19T08:38:04.729Z,21.00
2022-08-19T08:41:00.024Z,21.00
2022-08-19T08:43:36.822Z,21.10
2022-08-19T08:46:13.219Z,21.10
2022-08-19T08:48:52.595Z,21.10
2022-08-19T08:52:03.064Z,21.20
2022-08-19T08:54:49.091Z,21.30
2022-08-19T08:57:40.889Z,21.20
2022-08-19T09:00:17.530Z,21.40
2022-08-19T09:02:50.518Z,21.40
2022-08-19T09:05:25.989Z,21.50
2022-08-19T09:08:35.345Z,21.50
2022-08-19T09:11:15.603Z,21.50
2022-08-19T09:14:06.078Z,21.60
2022-08-19T09:16:34.482Z,21.60
2022-08-19T09:19:08.137Z,21.60
2022-08-19T09:21:36.271Z,21.70
2022-08-19T09:24:07.309Z,21.80
2022-08-19T09:26:47.552Z,21.80
2022-08-19T09:29:22.692Z,21.90
2022-08-19T09:31:51.123Z,21.90
2022-08-19T09:34:22.112Z,22.00
2022-08-19T09:36:54.673Z,22.00
2022-08-19T09:39:23.432Z,22.00
2022-08-19T09:41:51.575Z,21.90
2022-08-19T09:44:23.069Z,22.10
2022-08-19T09:46:52.028Z,22.20
2022-08-19T09:49:22.877Z,22.30
2022-08-19T09:51:55.446Z,22.30
2022-08-19T09:54:25.225Z,22.40
2022-08-19T09:56:54.695Z,22.40
2022-08-19T09:59:24.429Z,22.40
2022-08-19T10:01:52.807Z,22.30
2022-08-19T10:04:22.424Z,22.30
2022-08-19T10:06:53.889Z,22.30
2022-08-19T10:09:33.570Z,22.20
2022-08-19T10:12:06.072Z,22.30
2022-08-19T10:14:34.781Z,22.40
2022-08-19T10:17:17.451Z,22.40
2022-08-19T10:19:55.020Z,22.50
2022-08-19T10:22:25.660Z,22.60
2022-08-19T10:24:54.613Z,22.80
2022-08-19T10:27:22.680Z,22.90
2022-08-19T10:29:50.593Z,22.90
2022-08-19T10:32:18.466Z,23.00
2022-08-19T10:35:05.326Z,23.10
2022-08-19T10:37:34.003Z,23.20
2022-08-19T10:40:05.177Z,23.30
2022-08-19T10:42:33.370Z,23.30
2022-08-19T10:45:01.475Z,23.40
2022-08-19T10:47:31.864Z,23.40
2022-08-19T10:50:18.379Z,23.40
2022-08-19T10:52:50.765Z,23.50
2022-08-19T10:55:41.872Z,23.60
2022-08-19T10:58:24.804Z,23.70
2022-08-19T11:00:56.485Z,23.90
2022-08-19T11:03:26.632Z,24.10
2022-08-19T11:06:07.062Z,24.20
2022-08-19T11:08:38.674Z,24.30
2022-08-19T11:11:09.087Z,24.40
2022-08-19T11:13:42.636Z,24.40
2022-08-19T11:16:14.868Z,24.50
2022-08-19T11:18:48.035Z,24.40
2022-08-19T11:21:25.285Z,24.40
2022-08-19T11:23:57.706Z,24.30
2022-08-19T11:26:26.741Z,24.20
2022-08-19T11:28:56.529Z,24.30
2022-08-19T11:31:32.122Z,24.30
2022-08-19T11:34:04.085Z,24.30
2022-08-19T11:36:34.351Z,24.30
2022-08-19T11:39:06.517Z,24.30
2022-08-19T11:41:34.806Z,24.30
2022-08-19T11:44:04.258Z,24.30
2022-08-19T11:46:33.069Z,24.40
2022-08-19T11:49:03.968Z,24.40
2022-08-19T11:51:33.402Z,24.40
2022-08-19T11:54:02.427Z,24.30
2022-08-19T11:56:30.384Z,24.20
2022-08-19T11:58:58.579Z,24.20
2022-08-19T12:01:28.205Z,24.30
2022-08-19T12:03:57.804Z,24.40
2022-08-19T12:06:31.152Z,24.40
2022-08-19T12:09:07.231Z,24.50
2022-08-19T12:11:35.273Z,24.50
2022-08-19T12:14:03.679Z,24.50
2022-08-19T12:16:33.697Z,24.40
2022-08-19T12:19:05.225Z,24.50
2022-08-19T12:21:36.468Z,24.70
2022-08-19T12:24:07.318Z,24.80
2022-08-19T12:26:53.488Z,24.90
2022-08-19T12:29:29.020Z,25.10
2022-08-19T12:32:03.809Z,25.20
2022-08-19T12:34:33.336Z,25.20
2022-08-19T12:37:05.616Z,25.20
2022-08-19T12:39:40.066Z,25.20
2022-08-19T12:42:09.742Z,25.30
2022-08-19T12:44:41.630Z,25.40
2022-08-19T12:47:12.062Z,25.60
2022-08-19T12:49:54.963Z,25.70
2022-08-19T12:52:28.088Z,25.80
2022-08-19T12:54:58.281Z,25.80
2022-08-19T12:57:32.857Z,25.90
2022-08-19T13:00:13.578Z,25.90
2022-08-19T13:02:45.207Z,25.90
2022-08-19T13:05:21.859Z,25.90
2022-08-19T13:07:53.296Z,25.80
2022-08-19T13:10:23.037Z,25.80
2022-08-19T13:12:52.878Z,25.80
2022-08-19T13:15:24.000Z,25.70
2022-08-19T13:17:57.123Z,25.70
2022-08-19T13:20:25.925Z,25.60
2022-08-19T13:22:54.121Z,25.70
2022-08-19T13:25:22.553Z,25.80
2022-08-19T13:27:51.810Z,25.90
2022-08-19T13:30:39.678Z,26.00
2022-08-19T13:33:11.896Z,26.00
2022-08-19T13:35:58.127Z,25.90
2022-08-19T13:38:26.531Z,25.90
2022-08-19T13:40:56.269Z,25.80
2022-08-19T13:43:27.920Z,25.80
2022-08-19T13:45:57.607Z,25.80
2022-08-19T13:48:27.946Z,25.80
2022-08-19T13:50:56.709Z,25.80
2022-08-19T13:53:25.619Z,25.80
2022-08-19T13:55:54.694Z,25.80
2022-08-19T13:58:23.714Z,25.80
2022-08-19T14:00:51.680Z,25.80
2022-08-19T14:03:19.496Z,25.80
2022-08-19T14:05:47.771Z,25.80
2022-08-19T14:08:15.923Z,26.00
2022-08-19T14:10:45.734Z,26.00
2022-08-19T14:13:19.508Z,26.10
2022-08-19T14:15:48.466Z,26.10
2022-08-19T14:18:20.462Z,26.20
2022-08-19T14:20:48.451Z,26.20
2022-08-19T14:23:16.259Z,26.20
2022-08-19T14:25:44.466Z,26.20
2022-08-19T14:28:12.241Z,26.20
2022-08-19T14:30:40.202Z,26.20
2022-08-19T14:33:09.491Z,26.30
2022-08-19T14:35:38.049Z,26.20
2022-08-19T14:38:07.726Z,26.20
2022-08-19T14:40:35.789Z,26.30
2022-08-19T14:43:05.538Z,26.30
2022-08-19T14:45:37.319Z,26.40
2022-08-19T14:48:12.585Z,26.40
2022-08-19T14:50:47.511Z,26.30
2022-08-19T14:53:17.888Z,26.40
2022-08-19T14:55:47.356Z,26.70
2022-08-19T14:58:29.042Z,27.00
2022-08-19T15:01:01.083Z,27.40
2022-08-19T15:03:30.374Z,27.60
2022-08-19T15:06:00.091Z,27.50
2022-08-19T15:08:30.579Z,27.40
2022-08-19T15:10:59.870Z,27.50
2022-08-19T15:13:29.945Z,27.50
2022-08-19T15:15:58.197Z,27.40
2022-08-19T15:18:26.210Z,27.40
2022-08-19T15:20:55.977Z,27.40
2022-08-19T15:23:32.683Z,27.40
2022-08-19T15:26:00.425Z,27.60
2022-08-19T15:28:28.336Z,27.70
2022-08-19T15:30:56.116Z,27.80
2022-08-19T15:33:23.945Z,27.70
2022-08-19T15:35:52.224Z,27.70
2022-08-19T15:38:24.485Z,27.50
2022-08-19T15:40:52.410Z,27.20
2022-08-19T15:43:24.190Z,27.10
2022-08-19T15:45:51.964Z,27.00
2022-08-19T15:48:19.765Z,26.90
2022-08-19T15:50:47.549Z,26.80
2022-08-19T15:53:16.050Z,26.80
2022-08-19T15:55:46.209Z,26.70
2022-08-19T15:58:34.089Z,26.70
2022-08-19T16:01:26.976Z,26.60
2022-08-19T16:04:16.288Z,26.60
2022-08-19T16:06:57.093Z,26.60
2022-08-19T16:09:29.792Z,26.60
2022-08-19T16:12:02.381Z,26.60
2022-08-19T16:14:33.463Z,26.50
2022-08-19T16:17:02.060Z,26.50
2022-08-19T16:19:31.044Z,26.40
2022-08-19T16:21:58.872Z,26.40
2022-08-19T16:24:28.545Z,26.40
2022-08-19T16:26:56.966Z,26.40
2022-08-19T16:29:34.572Z,26.30
2022-08-19T16:32:11.902Z,26.20
2022-08-19T16:34:41.832Z,26.20
2022-08-19T16:37:10.700Z,26.30
2022-08-19T16:39:39.409Z,26.30
2022-08-19T16:42:11.661Z,26.20
2022-08-19T16:44:45.772Z,26.20
2022-08-19T16:47:16.386Z,26.20
2022-08-19T16:49:53.438Z,26.20
2022-08-19T16:52:26.325Z,26.20
2022-08-19T16:54:54.895Z,26.10
2022-08-19T16:57:23.939Z,25.90
2022-08-19T16:59:52.561Z,25.80
2022-08-19T17:02:23.318Z,25.60
2022-08-19T17:04:57.421Z,25.50
2022-08-19T17:07:32.287Z,25.40
2022-08-19T17:10:04.782Z,25.30
2022-08-19T17:12:32.682Z,25.20
2022-08-19T17:15:08.216Z,25.20
2022-08-19T17:17:37.398Z,25.10
2022-08-19T17:20:07.437Z,25.10
2022-08-19T17:22:37.131Z,25.10
2022-08-19T17:25:05.373Z,25.00
2022-08-19T17:27:33.215Z,24.90
2022-08-19T17:30:06.811Z,24.90
2022-08-19T17:32:35.151Z,24.80
2022-08-19T17:35:04.842Z,24.70
2022-08-19T17:37:34.564Z,24.70
2022-08-19T17:40:08.985Z,24.60
2022-08-19T17:42:36.934Z,24.60
2022-08-19T17:45:06.575Z,24.70
2022-08-19T17:47:36.695Z,24.60
2022-08-19T17:50:12.840Z,24.60
2022-08-19T17:52:40.648Z,24.50
2022-08-19T17:55:10.386Z,24.60
2022-08-19T17:57:46.065Z,24.50
2022-08-19T18:00:17.064Z,24.50
2022-08-19T18:02:52.327Z,24.50
2022-08-19T18:05:29.700Z,24.50
2022-08-19T18:07:59.872Z,24.40
2022-08-19T18:10:34.909Z,24.40
2022-08-19T18:13:10.830Z,24.30
2022-08-19T18:15:45.885Z,24.30
2022-08-19T18:18:14.991Z,24.30
2022-08-19T18:20:44.604Z,24.30
2022-08-19T18:23:41.225Z,24.30
2022-08-19T18:26:02.330Z,24.20
2022-08-19T18:28:31.107Z,24.20
2022-08-19T18:30:59.273Z,24.10
2022-08-19T18:33:27.227Z,24.00
2022-08-19T18:35:55.304Z,23.90
2022-08-19T18:38:42.095Z,23.90
2022-08-19T18:41:29.631Z,23.90
2022-08-19T18:44:16.151Z,23.90
2022-08-19T18:47:02.811Z,23.90
2022-08-19T18:49:34.769Z,23.70
2022-08-19T18:52:03.663Z,23.70
2022-08-19T18:54:31.450Z,23.70
2022-08-19T18:56:59.473Z,23.70
2022-08-19T18:59:29.346Z,23.70
2022-08-19T19:01:59.537Z,23.70
2022-08-19T19:04:34.191Z,23.70
2022-08-19T19:07:01.969Z,23.60
2022-08-19T19:09:29.941Z,23.60
2022-08-19T19:12:03.058Z,23.60
2022-08-19T19:14:50.446Z,23.70
2022-08-19T19:17:18.658Z,23.70
2022-08-19T19:19:46.516Z,23.70
2022-08-19T19:22:23.709Z,23.70
2022-08-19T19:24:54.126Z,23.80
2022-08-19T19:27:22.730Z,23.80
2022-08-19T19:29:52.568Z,23.80
2022-08-19T19:32:29.453Z,23.90
2022-08-19T19:34:57.447Z,23.80
2022-08-19T19:37:25.333Z,23.80
2022-08-19T19:39:53.209Z,23.80
2022-08-19T19:42:27.212Z,23.80
2022-08-19T19:44:56.281Z,23.80
2022-08-19T19:47:25.688Z,23.70
2022-08-19T19:52:46.063Z,23.70
2022-08-19T19:55:18.442Z,23.70
2022-08-19T19:57:48.821Z,23.70
2022-08-19T20:00:18.902Z,23.70
2022-08-19T20:02:50.165Z,23.70
2022-08-19T20:05:23.085Z,23.80
2022-08-19T20:08:12.520Z,23.70
2022-08-19T20:10:42.982Z,23.70
2022-08-19T20:13:15.546Z,23.70
2022-08-19T20:15:43.740Z,23.60
2022-08-19T20:18:14.600Z,23.60
2022-08-19T20:20:43.607Z,23.70
2022-08-19T20:23:11.415Z,23.60
2022-08-19T20:25:39.720Z,23.60
2022-08-19T20:28:07.560Z,23.70
2022-08-19T20:30:35.477Z,23.60
2022-08-19T20:33:06.910Z,23.70
2022-08-19T20:35:36.911Z,23.70
2022-08-19T20:38:06.580Z,23.70
2022-08-19T20:40:35.924Z,23.70
2022-08-19T20:43:09.360Z,23.70
2022-08-19T20:45:38.119Z,23.60
2022-08-19T20:48:08.092Z,23.50
2022-08-19T20:50:37.220Z,23.60
2022-08-19T20:53:17.067Z,23.50
2022-08-19T20:55:49.293Z,23.50
2022-08-19T20:58:21.251Z,23.50
2022-08-19T21:00:50.716Z,23.50
2022-08-19T21:03:24.568Z,23.50
2022-08-19T21:05:52.861Z,23.40
2022-08-19T21:08:20.875Z,23.40
2022-08-19T21:10:52.080Z,23.40
2022-08-19T21:13:21.228Z,23.30
2022-08-19T21:15:49.723Z,23.30
2022-08-19T21:18:20.724Z,23.20
2022-08-19T21:20:50.175Z,23.20
2022-08-19T21:23:22.391Z,23.10
2022-08-19T21:25:54.562Z,23.10
2022-08-19T21:28:35.066Z,23.10
2022-08-19T21:31:06.708Z,23.00
2022-08-19T21:33:34.556Z,23.00
2022-08-19T21:36:03.109Z,22.80
2022-08-19T21:38:31.389Z,22.90
2022-08-19T21:41:00.976Z,22.90
2022-08-19T21:43:35.826Z,22.90
2022-08-19T21:46:04.205Z,22.80
2022-08-19T21:48:32.405Z,22.80
2022-08-19T21:51:00.188Z,22.80
2022-08-19T21:53:31.697Z,22.70
2022-08-19T21:56:06.455Z,22.80
2022-08-19T21:58:36.520Z,22.80
2022-08-19T22:01:07.888Z,22.80
2022-08-19T22:03:37.651Z,22.70
2022-08-19T22:06:06.825Z,22.60
2022-08-19T22:08:34.615Z,22.60
2022-08-19T22:11:04.350Z,22.60
2022-08-19T22:13:40.105Z,22.60
2022-08-19T22:16:10.041Z,22.60
2022-08-19T22:18:38.048Z,22.60
2022-08-19T22:21:11.234Z,22.60
2022-08-19T22:23:44.407Z,22.60
2022-08-19T22:26:17.155Z,22.60
2022-08-19T22:28:45.108Z,22.60
2022-08-19T22:31:15.644Z,22.50
2022-08-19T22:33:43.912Z,22.40
2022-08-19T22:36:11.825Z,22.50
2022-08-19T22:38:39.971Z,22.40
2022-08-19T22:41:08.199Z,22.40
2022-08-19T22:43:37.567Z,22.30
2022-08-19T22:46:06.581Z,22.30
2022-08-19T22:48:46.237Z,22.10
2022-08-19T22:51:34.105Z,22.00
2022-08-19T22:54:03.186Z,22.00
2022-08-19T22:56:31.067Z,21.90
2022-08-19T22:58:58.965Z,21.90
2022-08-19T23:01:30.228Z,21.90
2022-08-19T23:03:59.693Z,21.90
2022-08-19T23:06:33.451Z,21.80
2022-08-19T23:09:05.352Z,21.80
2022-08-19T23:11:42.106Z,21.70
2022-08-19T23:14:12.567Z,21.60
2022-08-19T23:16:41.862Z,21.60
2022-08-19T23:19:10.530Z,21.60
2022-08-19T23:21:42.720Z,21.60
2022-08-19T23:24:11.440Z,21.60
2022-08-19T23:26:59.938Z,21.50
2022-08-19T23:29:47.318Z,21.40
2022-08-19T23:32:19.001Z,21.30
2022-08-19T23:34:47.277Z,21.20
2022-08-19T23:37:15.721Z,21.20
2022-08-19T23:39:44.609Z,21.10
2022-08-19T23:42:13.641Z,21.10
2022-08-19T23:44:52.281Z,21.10
2022-08-19T23:47:21.480Z,21.00
2022-08-19T23:49:49.478Z,20.90
2022-08-19T23:52:17.286Z,21.00
2022-08-19T23:54:45.112Z,21.00
2022-08-19T23:57:14.626Z,21.00
2022-08-19T23:59:45.605Z,21.00
